createdAt,value
2019-02-26T00:00:04.591Z,0.00
2019-02-26T00:01:04.584Z,0.00
2019-02-26T00:02:04.570Z,0.00
2019-02-26T00:03:04.819Z,0.00
2019-02-26T00:04:04.553Z,0.00
2019-02-26T00:05:04.540Z,0.00
2019-02-26T00:06:04.527Z,0.00
2019-02-26T00:07:04.525Z,0.00
2019-02-26T00:08:04.507Z,0.00
2019-02-26T00:09:04.500Z,0.00
2019-02-26T00:10:06.604Z,0.00
2019-02-26T00:11:06.711Z,0.00
2019-02-26T00:12:04.465Z,0.00
2019-02-26T00:13:04.456Z,0.00
2019-02-26T00:14:04.442Z,0.00
2019-02-26T00:15:04.433Z,0.00
2019-02-26T00:16:07.585Z,0.00
2019-02-26T00:17:08.685Z,0.00
2019-02-26T00:18:07.522Z,0.00
2019-02-26T00:19:05.027Z,0.00
2019-02-26T00:20:05.755Z,0.00
2019-02-26T00:21:04.997Z,0.00
2019-02-26T00:22:04.361Z,0.00
2019-02-26T00:23:04.465Z,0.00
2019-02-26T00:24:05.034Z,0.00
2019-02-26T00:25:06.256Z,0.00
2019-02-26T00:26:04.317Z,0.00
2019-02-26T00:27:05.497Z,0.00
2019-02-26T00:28:04.295Z,0.00
2019-02-26T00:29:06.171Z,0.00
2019-02-26T00:30:04.272Z,0.00
2019-02-26T00:31:06.020Z,0.00
2019-02-26T00:32:04.251Z,0.00
2019-02-26T00:33:05.256Z,0.00
2019-02-26T00:34:05.819Z,0.00
2019-02-26T00:35:04.371Z,0.00
2019-02-26T00:36:04.851Z,0.00
2019-02-26T00:37:06.152Z,0.00
2019-02-26T00:38:04.193Z,0.00
2019-02-26T00:39:05.159Z,0.00
2019-02-26T00:40:04.171Z,0.00
2019-02-26T00:41:05.959Z,0.00
2019-02-26T00:42:05.275Z,0.00
2019-02-26T00:43:04.765Z,0.00
2019-02-26T00:44:04.853Z,0.00
2019-02-26T00:45:07.413Z,0.00
2019-02-26T00:46:05.686Z,0.00
2019-02-26T00:47:04.971Z,0.00
2019-02-26T00:48:04.080Z,0.00
2019-02-26T00:49:05.885Z,0.00
2019-02-26T00:50:05.137Z,0.00
2019-02-26T00:51:04.049Z,0.00
2019-02-26T00:52:06.243Z,0.00
2019-02-26T00:53:04.075Z,0.00
2019-02-26T00:54:04.185Z,0.00
2019-02-26T00:55:05.386Z,0.00
2019-02-26T00:56:05.639Z,0.00
2019-02-26T00:57:05.903Z,0.00
2019-02-26T00:58:05.992Z,0.00
2019-02-26T00:59:03.967Z,0.00
2019-02-26T01:00:05.346Z,0.00
2019-02-26T01:01:03.943Z,0.00
2019-02-26T01:02:03.935Z,0.00
2019-02-26T01:03:05.744Z,0.00
2019-02-26T01:04:03.911Z,0.00
2019-02-26T01:05:04.491Z,0.00
2019-02-26T01:06:05.820Z,0.00
2019-02-26T01:07:05.472Z,0.00
2019-02-26T01:08:03.873Z,0.00
2019-02-26T01:09:06.057Z,0.00
2019-02-26T01:10:03.847Z,0.00
2019-02-26T01:11:05.926Z,0.00
2019-02-26T01:12:03.827Z,0.00
2019-02-26T01:13:05.150Z,0.00
2019-02-26T01:14:03.804Z,0.00
2019-02-26T01:15:04.962Z,0.00
2019-02-26T01:16:03.815Z,0.00
2019-02-26T01:17:03.778Z,0.00
2019-02-26T01:18:05.483Z,0.00
2019-02-26T01:19:03.754Z,0.00
2019-02-26T01:20:05.733Z,0.00
2019-02-26T01:21:04.293Z,0.00
2019-02-26T01:22:03.723Z,0.00
2019-02-26T01:23:03.715Z,0.00
2019-02-26T01:24:04.302Z,0.00
2019-02-26T01:25:03.690Z,0.00
2019-02-26T01:26:03.678Z,0.00
2019-02-26T01:27:03.670Z,0.00
2019-02-26T01:28:03.659Z,0.00
2019-02-26T01:29:03.648Z,0.00
2019-02-26T01:30:03.640Z,0.00
2019-02-26T01:31:05.027Z,0.00
2019-02-26T01:32:03.615Z,0.00
2019-02-26T01:33:05.617Z,0.00
2019-02-26T01:34:03.593Z,0.00
2019-02-26T01:35:06.003Z,0.00
2019-02-26T01:36:03.577Z,0.00
2019-02-26T01:37:05.508Z,0.00
2019-02-26T01:38:03.551Z,0.00
2019-02-26T01:39:07.344Z,0.00
2019-02-26T01:40:07.331Z,0.00
2019-02-26T01:41:03.518Z,0.00
2019-02-26T01:42:03.518Z,0.00
2019-02-26T01:43:05.519Z,0.00
2019-02-26T01:44:03.487Z,0.00
2019-02-26T01:45:03.478Z,0.00
2019-02-26T01:46:03.467Z,0.00
2019-02-26T01:47:04.732Z,0.00
2019-02-26T01:48:04.072Z,0.00
2019-02-26T01:49:04.325Z,0.00
2019-02-26T01:50:04.170Z,0.00
2019-02-26T01:51:03.464Z,0.00
2019-02-26T01:52:03.402Z,0.00
2019-02-26T01:53:03.396Z,0.00
2019-02-26T01:54:05.188Z,0.00
2019-02-26T01:55:03.371Z,0.00
2019-02-26T01:56:05.099Z,0.00
2019-02-26T01:57:03.359Z,0.00
2019-02-26T01:58:03.344Z,0.00
2019-02-26T01:59:03.328Z,0.00
2019-02-26T02:00:06.449Z,0.00
2019-02-26T02:01:03.308Z,0.00
2019-02-26T02:02:03.297Z,0.00
2019-02-26T02:03:03.287Z,0.00
2019-02-26T02:04:03.274Z,0.00
2019-02-26T02:05:05.349Z,0.00
2019-02-26T02:06:03.253Z,0.00
2019-02-26T02:07:04.176Z,0.00
2019-02-26T02:08:03.234Z,0.00
2019-02-26T02:09:03.223Z,0.00
2019-02-26T02:10:03.318Z,0.00
2019-02-26T02:11:04.802Z,0.00
2019-02-26T02:12:04.308Z,0.00
2019-02-26T02:13:04.789Z,0.00
2019-02-26T02:14:05.760Z,0.00
2019-02-26T02:15:03.160Z,0.00
2019-02-26T02:16:04.481Z,0.00
2019-02-26T02:17:03.619Z,0.00
2019-02-26T02:18:04.161Z,0.00
2019-02-26T02:19:03.115Z,0.00
2019-02-26T02:20:05.655Z,0.00
2019-02-26T02:21:03.095Z,0.00
2019-02-26T02:22:03.087Z,0.00
2019-02-26T02:23:04.681Z,0.00
2019-02-26T02:24:03.065Z,0.00
2019-02-26T02:25:03.054Z,0.00
2019-02-26T02:26:04.390Z,0.00
2019-02-26T02:27:03.031Z,0.00
2019-02-26T02:28:04.497Z,0.00
2019-02-26T02:29:03.011Z,0.00
2019-02-26T02:30:03.001Z,0.00
2019-02-26T02:31:02.989Z,0.00
2019-02-26T02:32:05.072Z,0.00
2019-02-26T02:33:02.969Z,0.00
2019-02-26T02:34:02.961Z,0.00
2019-02-26T02:35:06.703Z,0.00
2019-02-26T02:36:02.939Z,0.00
2019-02-26T02:37:02.929Z,0.00
2019-02-26T02:38:04.885Z,0.00
2019-02-26T02:39:02.914Z,0.00
2019-02-26T02:40:02.899Z,0.00
2019-02-26T02:41:02.892Z,0.00
2019-02-26T02:42:02.876Z,0.00
2019-02-26T02:43:04.543Z,0.00
2019-02-26T02:44:02.861Z,0.00
2019-02-26T02:45:05.169Z,0.00
2019-02-26T02:46:02.834Z,0.00
2019-02-26T02:47:04.259Z,0.00
2019-02-26T02:48:03.316Z,0.00
2019-02-26T02:49:04.591Z,0.00
2019-02-26T02:50:03.158Z,0.00
2019-02-26T02:51:05.340Z,0.00
2019-02-26T02:52:04.199Z,0.00
2019-02-26T02:53:04.024Z,0.00
2019-02-26T02:54:02.748Z,0.00
2019-02-26T02:55:04.477Z,0.00
2019-02-26T02:56:03.726Z,0.00
2019-02-26T02:57:04.857Z,0.00
2019-02-26T02:58:02.707Z,0.00
2019-02-26T02:59:03.552Z,0.00
2019-02-26T03:00:05.120Z,0.00
2019-02-26T03:01:02.676Z,0.00
2019-02-26T03:02:02.665Z,0.00
2019-02-26T03:03:02.654Z,0.00
2019-02-26T03:04:02.644Z,0.00
2019-02-26T03:05:02.638Z,0.00
2019-02-26T03:06:06.518Z,0.00
2019-02-26T03:07:03.052Z,0.00
2019-02-26T03:08:02.603Z,0.00
2019-02-26T03:09:02.593Z,0.00
2019-02-26T03:10:04.526Z,0.00
2019-02-26T03:11:02.569Z,0.00
2019-02-26T03:12:02.561Z,0.00
2019-02-26T03:13:02.991Z,0.00
2019-02-26T03:14:02.539Z,0.00
2019-02-26T03:15:04.843Z,0.00
2019-02-26T03:16:02.520Z,0.00
2019-02-26T03:17:02.517Z,0.00
2019-02-26T03:18:04.126Z,0.00
2019-02-26T03:19:04.152Z,0.00
2019-02-26T03:20:04.833Z,0.00
2019-02-26T03:21:04.781Z,0.00
2019-02-26T03:22:02.456Z,0.00
2019-02-26T03:23:04.585Z,0.00
2019-02-26T03:24:03.340Z,0.00
2019-02-26T03:25:02.580Z,0.00
2019-02-26T03:26:02.410Z,0.00
2019-02-26T03:27:02.403Z,0.00
2019-02-26T03:28:02.389Z,0.00
2019-02-26T03:29:02.388Z,0.00
2019-02-26T03:30:02.375Z,0.00
2019-02-26T03:31:02.376Z,0.00
2019-02-26T03:32:02.362Z,0.00
2019-02-26T03:33:04.398Z,0.00
2019-02-26T03:34:08.673Z,0.00
2019-02-26T03:35:07.108Z,0.00
2019-02-26T03:36:05.469Z,0.00
2019-02-26T03:37:03.832Z,0.00
2019-02-26T03:38:03.613Z,0.00
2019-02-26T03:39:02.872Z,0.00
2019-02-26T03:40:03.656Z,0.00
2019-02-26T03:41:03.676Z,0.00
2019-02-26T03:42:02.241Z,0.00
2019-02-26T03:43:04.534Z,0.00
2019-02-26T03:44:03.304Z,0.00
2019-02-26T03:45:02.943Z,0.00
2019-02-26T03:46:02.203Z,0.00
2019-02-26T03:47:02.188Z,0.00
2019-02-26T03:48:02.183Z,0.00
2019-02-26T03:49:02.724Z,0.00
2019-02-26T03:50:02.164Z,0.00
2019-02-26T03:51:02.147Z,0.00
2019-02-26T03:52:02.138Z,0.00
2019-02-26T03:53:02.126Z,0.00
2019-02-26T03:54:02.115Z,0.00
2019-02-26T03:55:03.364Z,0.00
2019-02-26T03:56:04.480Z,0.00
2019-02-26T03:57:03.082Z,0.00
2019-02-26T03:58:02.328Z,0.00
2019-02-26T03:59:05.729Z,0.00
2019-02-26T04:00:05.616Z,0.00
2019-02-26T04:01:07.301Z,0.00
2019-02-26T04:02:03.029Z,0.00
2019-02-26T04:03:03.491Z,0.00
2019-02-26T04:04:02.897Z,0.00
2019-02-26T04:05:02.842Z,0.00
2019-02-26T04:06:03.121Z,0.00
2019-02-26T04:07:04.299Z,0.00
2019-02-26T04:08:04.250Z,0.00
2019-02-26T04:09:01.956Z,0.00
2019-02-26T04:10:01.944Z,0.00
2019-02-26T04:11:02.074Z,0.00
2019-02-26T04:12:01.924Z,0.00
2019-02-26T04:13:01.914Z,0.00
2019-02-26T04:14:01.910Z,0.00
2019-02-26T04:15:01.894Z,0.00
2019-02-26T04:16:04.517Z,0.00
2019-02-26T04:17:04.116Z,0.00
2019-02-26T04:18:01.862Z,0.00
2019-02-26T04:19:01.849Z,0.00
2019-02-26T04:20:02.727Z,0.00
2019-02-26T04:21:05.720Z,0.00
2019-02-26T04:22:01.819Z,0.00
2019-02-26T04:23:01.810Z,0.00
2019-02-26T04:24:03.577Z,0.00
2019-02-26T04:25:06.326Z,0.00
2019-02-26T04:26:02.765Z,0.00
2019-02-26T04:27:01.759Z,0.00
2019-02-26T04:28:04.587Z,0.00
2019-02-26T04:29:01.740Z,0.00
2019-02-26T04:30:01.726Z,0.00
2019-02-26T04:31:02.849Z,0.00
2019-02-26T04:32:01.705Z,0.00
2019-02-26T04:33:03.973Z,0.00
2019-02-26T04:34:05.100Z,0.00
2019-02-26T04:35:02.961Z,0.00
2019-02-26T04:36:01.663Z,0.00
2019-02-26T04:37:04.641Z,0.00
2019-02-26T04:38:03.446Z,0.00
2019-02-26T04:39:01.629Z,0.00
2019-02-26T04:40:04.869Z,0.00
2019-02-26T04:41:05.556Z,0.00
2019-02-26T04:42:03.305Z,0.00
2019-02-26T04:43:02.656Z,0.00
2019-02-26T04:44:03.806Z,0.00
2019-02-26T04:45:04.926Z,0.00
2019-02-26T04:46:05.046Z,0.00
2019-02-26T04:47:03.505Z,0.00
2019-02-26T04:48:01.552Z,0.00
2019-02-26T04:49:01.526Z,0.00
2019-02-26T04:50:05.485Z,0.00
2019-02-26T04:51:01.503Z,0.00
2019-02-26T04:52:02.982Z,0.00
2019-02-26T04:53:04.446Z,0.00
2019-02-26T04:54:02.110Z,0.00
2019-02-26T04:55:01.463Z,0.00
2019-02-26T04:56:03.035Z,0.00
2019-02-26T04:57:01.439Z,0.00
2019-02-26T04:58:01.431Z,0.00
2019-02-26T04:59:03.469Z,0.00
2019-02-26T05:00:04.599Z,0.00
2019-02-26T05:01:01.399Z,0.00
2019-02-26T05:02:01.384Z,0.00
2019-02-26T05:03:01.375Z,0.00
2019-02-26T05:04:01.364Z,0.00
2019-02-26T05:05:01.359Z,0.00
2019-02-26T05:06:03.047Z,0.00
2019-02-26T05:07:04.400Z,0.00
2019-02-26T05:08:04.049Z,0.00
2019-02-26T05:09:02.850Z,0.00
2019-02-26T05:10:02.290Z,0.00
2019-02-26T05:11:01.293Z,0.00
2019-02-26T05:12:01.279Z,0.00
2019-02-26T05:13:03.937Z,0.00
2019-02-26T05:14:02.256Z,0.00
2019-02-26T05:15:01.254Z,0.00
2019-02-26T05:16:01.242Z,0.00
2019-02-26T05:17:01.226Z,0.00
2019-02-26T05:18:01.215Z,0.00
2019-02-26T05:19:01.218Z,0.00
2019-02-26T05:20:03.518Z,0.00
2019-02-26T05:21:02.763Z,0.00
2019-02-26T05:22:01.601Z,0.00
2019-02-26T05:23:03.104Z,0.00
2019-02-26T05:24:02.950Z,0.00
2019-02-26T05:25:01.144Z,0.00
2019-02-26T05:26:05.153Z,0.00
2019-02-26T05:27:02.122Z,0.00
2019-02-26T05:28:03.672Z,0.00
2019-02-26T05:29:01.098Z,0.00
2019-02-26T05:30:01.090Z,0.00
2019-02-26T05:31:03.449Z,0.00
2019-02-26T05:32:04.000Z,0.00
2019-02-26T05:33:03.026Z,0.00
2019-02-26T05:34:01.046Z,0.00
2019-02-26T05:35:01.036Z,0.00
2019-02-26T05:36:01.025Z,0.00
2019-02-26T05:37:02.357Z,0.00
2019-02-26T05:38:03.633Z,0.00
2019-02-26T05:39:02.339Z,0.00
2019-02-26T05:40:00.983Z,0.00
2019-02-26T05:41:00.971Z,0.00
2019-02-26T05:42:03.217Z,0.00
2019-02-26T05:43:01.848Z,0.00
2019-02-26T05:44:03.910Z,0.00
2019-02-26T05:45:05.370Z,0.00
2019-02-26T05:46:04.005Z,0.00
2019-02-26T05:47:01.631Z,0.00
2019-02-26T05:48:00.899Z,0.00
2019-02-26T05:49:02.904Z,0.00
2019-02-26T05:50:02.480Z,0.00
2019-02-26T05:51:02.950Z,5.62
2019-02-26T05:52:01.742Z,5.62
2019-02-26T05:53:01.888Z,5.62
2019-02-26T05:54:02.130Z,5.62
2019-02-26T05:55:00.833Z,5.62
2019-02-26T05:56:00.813Z,5.62
2019-02-26T05:57:01.854Z,5.62
2019-02-26T05:58:00.791Z,5.62
2019-02-26T05:59:04.366Z,5.62
2019-02-26T06:00:01.768Z,5.62
2019-02-26T06:01:00.762Z,11.25
2019-02-26T06:02:00.769Z,11.25
2019-02-26T06:03:00.737Z,11.25
2019-02-26T06:04:00.728Z,11.25
2019-02-26T06:05:00.716Z,16.88
2019-02-26T06:06:00.749Z,16.88
2019-02-26T06:07:02.209Z,22.50
2019-02-26T06:08:00.684Z,22.50
2019-02-26T06:09:02.916Z,22.50
2019-02-26T06:10:00.662Z,28.12
2019-02-26T06:11:00.654Z,28.12
2019-02-26T06:12:00.643Z,33.75
2019-02-26T06:13:02.271Z,33.75
2019-02-26T06:14:06.406Z,39.38
2019-02-26T06:15:04.971Z,39.38
2019-02-26T06:16:02.290Z,45.00
2019-02-26T06:17:00.588Z,45.00
2019-02-26T06:18:00.589Z,50.62
2019-02-26T06:19:00.568Z,56.25
2019-02-26T06:20:02.609Z,56.25
2019-02-26T06:21:01.204Z,61.88
2019-02-26T06:22:00.538Z,67.50
2019-02-26T06:23:00.524Z,67.50
2019-02-26T06:24:00.519Z,73.12
2019-02-26T06:25:06.983Z,73.12
2019-02-26T06:26:04.915Z,78.75
2019-02-26T06:27:01.482Z,78.75
2019-02-26T06:28:04.474Z,84.38
2019-02-26T06:29:01.465Z,90.00
2019-02-26T06:30:03.179Z,95.62
2019-02-26T06:31:01.439Z,101.25
2019-02-26T06:32:00.959Z,106.88
2019-02-26T06:33:04.141Z,106.88
2019-02-26T06:34:03.539Z,106.88
2019-02-26T06:35:01.395Z,112.50
2019-02-26T06:36:01.749Z,112.50
2019-02-26T06:37:00.379Z,118.12
2019-02-26T06:38:02.093Z,129.38
2019-02-26T06:39:01.533Z,135.00
2019-02-26T06:40:02.537Z,135.00
2019-02-26T06:41:00.333Z,140.62
2019-02-26T06:42:00.324Z,151.88
2019-02-26T06:43:00.313Z,140.62
2019-02-26T06:44:00.301Z,129.38
2019-02-26T06:45:00.351Z,123.75
2019-02-26T06:46:02.570Z,129.38
2019-02-26T06:47:02.112Z,129.38
2019-02-26T06:48:00.261Z,129.38
2019-02-26T06:49:00.247Z,135.00
2019-02-26T06:50:00.263Z,140.62
2019-02-26T06:51:02.179Z,140.62
2019-02-26T06:52:00.224Z,146.25
2019-02-26T06:53:00.208Z,146.25
2019-02-26T06:54:01.058Z,140.62
2019-02-26T06:55:02.892Z,146.25
2019-02-26T06:56:00.841Z,140.62
2019-02-26T06:57:00.163Z,140.62
2019-02-26T06:58:00.154Z,140.62
2019-02-26T06:59:00.744Z,140.62
2019-02-26T07:00:01.143Z,151.88
2019-02-26T07:01:00.122Z,163.12
2019-02-26T07:02:00.113Z,163.12
2019-02-26T07:03:02.234Z,168.75
2019-02-26T07:04:00.092Z,174.38
2019-02-26T07:05:00.110Z,174.38
2019-02-26T07:06:03.204Z,180.00
2019-02-26T07:07:02.024Z,185.62
2019-02-26T07:08:02.062Z,191.25
2019-02-26T07:09:00.036Z,191.25
2019-02-26T07:10:00.025Z,191.25
2019-02-26T07:11:00.015Z,191.25
2019-02-26T07:12:00.011Z,196.88
2019-02-26T07:13:02.034Z,196.88
2019-02-26T07:14:01.316Z,202.50
2019-02-26T07:14:59.973Z,196.88
2019-02-26T07:15:59.964Z,196.88
2019-02-26T07:16:59.952Z,202.50
2019-02-26T07:18:02.151Z,208.12
2019-02-26T07:19:01.229Z,208.12
2019-02-26T07:20:00.815Z,213.75
2019-02-26T07:21:00.241Z,213.75
2019-02-26T07:21:59.903Z,225.00
2019-02-26T07:22:59.890Z,236.25
2019-02-26T07:24:01.188Z,241.88
2019-02-26T07:24:59.869Z,258.75
2019-02-26T07:25:59.856Z,275.62
2019-02-26T07:27:01.973Z,286.88
2019-02-26T07:28:01.104Z,292.50
2019-02-26T07:28:59.839Z,292.50
2019-02-26T07:29:59.815Z,286.88
2019-02-26T07:31:00.480Z,292.50
2019-02-26T07:31:59.791Z,292.50
2019-02-26T07:32:59.783Z,303.75
2019-02-26T07:34:01.369Z,326.25
2019-02-26T07:34:59.955Z,343.12
2019-02-26T07:36:01.771Z,354.38
2019-02-26T07:36:59.737Z,365.62
2019-02-26T07:38:01.320Z,371.25
2019-02-26T07:38:59.715Z,438.75
2019-02-26T07:39:59.704Z,489.38
2019-02-26T07:41:01.926Z,517.50
2019-02-26T07:41:59.695Z,540.00
2019-02-26T07:42:59.675Z,562.50
2019-02-26T07:44:00.084Z,607.50
2019-02-26T07:44:59.652Z,635.62
2019-02-26T07:45:59.642Z,641.25
2019-02-26T07:47:00.889Z,579.38
2019-02-26T07:48:01.022Z,573.75
2019-02-26T07:49:01.910Z,590.62
2019-02-26T07:50:01.677Z,568.12
2019-02-26T07:50:59.589Z,562.50
2019-02-26T07:52:00.348Z,573.75
2019-02-26T07:52:59.568Z,562.50
2019-02-26T07:54:00.740Z,568.12
2019-02-26T07:54:59.544Z,585.00
2019-02-26T07:56:01.235Z,652.50
2019-02-26T07:57:02.092Z,759.38
2019-02-26T07:57:59.514Z,787.50
2019-02-26T07:59:02.067Z,680.62
2019-02-26T07:59:59.492Z,663.75
2019-02-26T08:00:59.482Z,731.25
2019-02-26T08:02:01.252Z,832.50
2019-02-26T08:03:00.206Z,742.50
2019-02-26T08:03:59.448Z,725.62
2019-02-26T08:04:59.438Z,630.00
2019-02-26T08:06:04.110Z,641.25
2019-02-26T08:07:01.885Z,646.88
2019-02-26T08:07:59.408Z,652.50
2019-02-26T08:08:59.397Z,691.88
2019-02-26T08:09:59.384Z,669.38
2019-02-26T08:10:59.376Z,691.88
2019-02-26T08:11:59.370Z,781.88
2019-02-26T08:13:01.154Z,798.75
2019-02-26T08:14:01.476Z,742.50
2019-02-26T08:14:59.331Z,686.25
2019-02-26T08:16:00.106Z,742.50
2019-02-26T08:17:01.299Z,905.62
2019-02-26T08:18:01.278Z,990.00
2019-02-26T08:19:01.337Z,973.12
2019-02-26T08:20:01.622Z,776.25
2019-02-26T08:21:00.748Z,1023.75
2019-02-26T08:21:59.256Z,1029.38
2019-02-26T08:23:01.223Z,1040.62
2019-02-26T08:23:59.236Z,1035.00
2019-02-26T08:24:59.222Z,1074.38
2019-02-26T08:26:00.475Z,1006.88
2019-02-26T08:27:00.908Z,928.12
2019-02-26T08:28:01.198Z,1006.88
2019-02-26T08:29:00.251Z,1170.00
2019-02-26T08:30:00.934Z,1462.50
2019-02-26T08:30:59.158Z,1980.00
2019-02-26T08:31:59.681Z,1873.12
2019-02-26T08:33:02.014Z,1321.88
2019-02-26T08:34:00.122Z,1333.12
2019-02-26T08:34:59.976Z,1018.12
2019-02-26T08:35:59.104Z,1046.25
2019-02-26T08:36:59.097Z,1591.88
2019-02-26T08:37:59.080Z,1895.62
2019-02-26T08:38:59.073Z,2283.75
2019-02-26T08:39:59.078Z,2334.38
2019-02-26T08:40:59.050Z,2368.12
2019-02-26T08:41:59.040Z,2334.38
2019-02-26T08:42:59.028Z,2356.88
2019-02-26T08:43:59.038Z,2328.75
2019-02-26T08:44:59.008Z,2266.88
2019-02-26T08:45:58.995Z,2351.25
2019-02-26T08:46:58.985Z,2435.62
2019-02-26T08:47:58.975Z,2520.00
2019-02-26T08:49:07.878Z,2520.00
2019-02-26T08:50:01.675Z,2514.38
2019-02-26T08:51:03.048Z,2536.88
2019-02-26T08:51:59.932Z,2126.25
2019-02-26T08:52:58.919Z,2548.12
2019-02-26T08:53:58.910Z,2480.62
2019-02-26T08:54:58.900Z,2480.62
2019-02-26T08:56:01.414Z,2773.12
2019-02-26T08:56:58.880Z,2131.88
2019-02-26T08:57:58.867Z,1113.75
2019-02-26T08:59:00.790Z,1096.88
2019-02-26T08:59:58.846Z,1006.88
2019-02-26T09:00:58.835Z,945.00
2019-02-26T09:01:58.827Z,894.38
2019-02-26T09:02:58.814Z,821.25
2019-02-26T09:04:00.710Z,714.38
2019-02-26T09:04:59.367Z,635.62
2019-02-26T09:06:10.970Z,601.88
2019-02-26T09:07:01.952Z,607.50
2019-02-26T09:07:58.758Z,607.50
2019-02-26T09:09:00.193Z,562.50
2019-02-26T09:09:58.737Z,517.50
2019-02-26T09:11:00.726Z,489.38
2019-02-26T09:12:00.618Z,500.62
2019-02-26T09:12:58.705Z,506.25
2019-02-26T09:13:59.571Z,511.88
2019-02-26T09:14:58.683Z,511.88
2019-02-26T09:16:00.619Z,523.12
2019-02-26T09:16:59.704Z,540.00
2019-02-26T09:17:58.653Z,556.88
2019-02-26T09:18:58.643Z,540.00
2019-02-26T09:20:08.475Z,517.50
2019-02-26T09:20:59.618Z,500.62
2019-02-26T09:21:58.609Z,483.75
2019-02-26T09:22:59.643Z,472.50
2019-02-26T09:24:00.024Z,450.00
2019-02-26T09:24:59.873Z,433.12
2019-02-26T09:26:00.373Z,427.50
2019-02-26T09:27:00.459Z,421.88
2019-02-26T09:27:58.544Z,416.25
2019-02-26T09:28:58.538Z,410.62
2019-02-26T09:29:58.522Z,405.00
2019-02-26T09:31:01.179Z,405.00
2019-02-26T09:31:59.502Z,405.00
2019-02-26T09:33:00.609Z,399.38
2019-02-26T09:33:58.481Z,405.00
2019-02-26T09:34:59.190Z,410.62
2019-02-26T09:35:58.459Z,410.62
2019-02-26T09:37:00.507Z,421.88
2019-02-26T09:38:00.798Z,427.50
2019-02-26T09:38:58.428Z,450.00
2019-02-26T09:39:59.241Z,455.62
2019-02-26T09:40:58.410Z,472.50
2019-02-26T09:41:59.413Z,489.38
2019-02-26T09:43:00.110Z,506.25
2019-02-26T09:43:59.374Z,506.25
2019-02-26T09:45:00.204Z,511.88
2019-02-26T09:45:58.350Z,506.25
2019-02-26T09:47:00.098Z,506.25
2019-02-26T09:47:58.387Z,495.00
2019-02-26T09:49:00.337Z,489.38
2019-02-26T09:49:58.499Z,489.38
2019-02-26T09:50:58.299Z,495.00
2019-02-26T09:51:59.045Z,517.50
2019-02-26T09:52:59.295Z,562.50
2019-02-26T09:53:58.985Z,590.62
2019-02-26T09:54:58.254Z,618.75
2019-02-26T09:55:58.247Z,658.12
2019-02-26T09:56:58.236Z,669.38
2019-02-26T09:57:58.223Z,652.50
2019-02-26T09:58:58.213Z,641.25
2019-02-26T10:00:00.215Z,635.62
2019-02-26T10:00:58.192Z,630.00
2019-02-26T10:01:58.950Z,624.38
2019-02-26T10:02:58.169Z,613.12
2019-02-26T10:03:58.367Z,607.50
2019-02-26T10:04:58.148Z,573.75
2019-02-26T10:05:58.138Z,545.62
2019-02-26T10:06:58.128Z,523.12
2019-02-26T10:08:00.493Z,528.75
2019-02-26T10:08:58.106Z,528.75
2019-02-26T10:09:59.846Z,528.75
2019-02-26T10:11:00.324Z,545.62
2019-02-26T10:11:58.074Z,590.62
2019-02-26T10:12:59.941Z,641.25
2019-02-26T10:13:58.050Z,680.62
2019-02-26T10:15:00.162Z,680.62
2019-02-26T10:15:59.235Z,658.12
2019-02-26T10:16:58.019Z,652.50
2019-02-26T10:18:00.870Z,669.38
2019-02-26T10:18:57.996Z,697.50
2019-02-26T10:19:59.370Z,714.38
2019-02-26T10:20:57.984Z,725.62
2019-02-26T10:22:00.118Z,720.00
2019-02-26T10:23:00.657Z,725.62
2019-02-26T10:23:59.455Z,731.25
2019-02-26T10:24:57.956Z,703.12
2019-02-26T10:26:00.209Z,680.62
2019-02-26T10:27:00.784Z,680.62
2019-02-26T10:28:03.009Z,708.75
2019-02-26T10:29:04.212Z,736.88
2019-02-26T10:29:58.873Z,759.38
2019-02-26T10:31:01.792Z,798.75
2019-02-26T10:31:58.853Z,838.12
2019-02-26T10:33:01.828Z,883.12
2019-02-26T10:33:57.832Z,939.38
2019-02-26T10:34:57.819Z,978.75
2019-02-26T10:35:57.810Z,973.12
2019-02-26T10:36:57.797Z,933.75
2019-02-26T10:38:00.347Z,855.00
2019-02-26T10:39:00.225Z,826.88
2019-02-26T10:39:57.769Z,776.25
2019-02-26T10:40:59.722Z,753.75
2019-02-26T10:42:01.971Z,697.50
2019-02-26T10:42:57.735Z,675.00
2019-02-26T10:43:57.728Z,624.38
2019-02-26T10:44:57.720Z,590.62
2019-02-26T10:45:57.703Z,579.38
2019-02-26T10:46:58.352Z,601.88
2019-02-26T10:47:59.358Z,641.25
2019-02-26T10:48:57.671Z,686.25
2019-02-26T10:49:57.665Z,725.62
2019-02-26T10:50:57.648Z,736.88
2019-02-26T10:51:58.565Z,776.25
2019-02-26T10:53:06.509Z,855.00
2019-02-26T10:53:59.970Z,922.50
2019-02-26T10:54:57.608Z,939.38
2019-02-26T10:55:57.601Z,916.88
2019-02-26T10:57:00.145Z,855.00
2019-02-26T10:57:58.669Z,793.12
2019-02-26T10:59:02.762Z,770.62
2019-02-26T10:59:59.635Z,826.88
2019-02-26T11:00:59.415Z,900.00
2019-02-26T11:01:58.433Z,950.62
2019-02-26T11:02:57.518Z,967.50
2019-02-26T11:03:57.508Z,990.00
2019-02-26T11:04:57.495Z,995.62
2019-02-26T11:05:57.489Z,984.38
2019-02-26T11:06:59.357Z,1068.75
2019-02-26T11:07:59.724Z,956.25
2019-02-26T11:09:01.105Z,1001.25
2019-02-26T11:09:58.868Z,939.38
2019-02-26T11:10:57.435Z,956.25
2019-02-26T11:11:58.419Z,950.62
2019-02-26T11:12:59.388Z,928.12
2019-02-26T11:13:57.401Z,883.12
2019-02-26T11:14:58.555Z,860.62
2019-02-26T11:15:59.818Z,776.25
2019-02-26T11:16:58.368Z,720.00
2019-02-26T11:17:57.381Z,663.75
2019-02-26T11:18:59.237Z,641.25
2019-02-26T11:19:58.627Z,624.38
2019-02-26T11:20:59.207Z,618.75
2019-02-26T11:21:58.699Z,630.00
2019-02-26T11:22:57.303Z,652.50
2019-02-26T11:23:58.481Z,703.12
2019-02-26T11:24:58.628Z,770.62
2019-02-26T11:25:57.270Z,855.00
2019-02-26T11:26:57.264Z,888.75
2019-02-26T11:27:57.255Z,922.50
2019-02-26T11:28:57.238Z,984.38
2019-02-26T11:29:59.500Z,1063.12
2019-02-26T11:30:57.217Z,1096.88
2019-02-26T11:31:57.205Z,1051.88
2019-02-26T11:33:02.046Z,984.38
2019-02-26T11:34:00.997Z,849.38
2019-02-26T11:35:01.808Z,810.00
2019-02-26T11:35:57.165Z,781.88
2019-02-26T11:36:58.485Z,826.88
2019-02-26T11:37:58.084Z,843.75
2019-02-26T11:38:59.203Z,815.62
2019-02-26T11:39:57.696Z,776.25
2019-02-26T11:40:57.110Z,798.75
2019-02-26T11:41:59.514Z,995.62
2019-02-26T11:42:59.638Z,2086.88
2019-02-26T11:43:57.076Z,2750.62
2019-02-26T11:44:57.065Z,1940.62
2019-02-26T11:45:59.180Z,2615.62
2019-02-26T11:46:57.114Z,1659.38
2019-02-26T11:47:58.088Z,1749.38
2019-02-26T11:48:57.563Z,1738.12
2019-02-26T11:49:57.011Z,1670.62
2019-02-26T11:51:00.806Z,1428.75
2019-02-26T11:51:57.004Z,1423.12
2019-02-26T11:52:56.982Z,1755.00
2019-02-26T11:53:56.969Z,3060.00
2019-02-26T11:54:58.728Z,2255.62
2019-02-26T11:55:59.156Z,1906.88
2019-02-26T11:56:56.939Z,1378.12
2019-02-26T11:57:56.965Z,1490.62
2019-02-26T11:58:56.918Z,1209.38
2019-02-26T11:59:57.541Z,1046.25
2019-02-26T12:00:57.426Z,1141.88
2019-02-26T12:01:58.945Z,826.88
2019-02-26T12:02:56.873Z,680.62
2019-02-26T12:04:03.197Z,618.75
2019-02-26T12:04:59.895Z,573.75
2019-02-26T12:06:00.551Z,545.62
2019-02-26T12:06:58.512Z,517.50
2019-02-26T12:07:58.692Z,506.25
2019-02-26T12:08:56.807Z,495.00
2019-02-26T12:09:57.873Z,495.00
2019-02-26T12:11:01.104Z,517.50
2019-02-26T12:11:58.505Z,551.25
2019-02-26T12:12:59.397Z,562.50
2019-02-26T12:13:56.754Z,579.38
2019-02-26T12:14:56.743Z,607.50
2019-02-26T12:15:56.733Z,635.62
2019-02-26T12:16:56.720Z,630.00
2019-02-26T12:17:58.648Z,601.88
2019-02-26T12:18:58.906Z,590.62
2019-02-26T12:19:57.961Z,573.75
2019-02-26T12:20:56.681Z,562.50
2019-02-26T12:21:57.462Z,545.62
2019-02-26T12:22:56.658Z,523.12
2019-02-26T12:23:58.019Z,489.38
2019-02-26T12:24:58.766Z,466.88
2019-02-26T12:25:59.281Z,450.00
2019-02-26T12:26:56.614Z,427.50
2019-02-26T12:27:56.603Z,410.62
2019-02-26T12:28:57.352Z,405.00
2019-02-26T12:29:56.581Z,410.62
2019-02-26T12:30:58.387Z,416.25
2019-02-26T12:31:58.244Z,427.50
2019-02-26T12:32:56.549Z,433.12
2019-02-26T12:33:56.538Z,444.38
2019-02-26T12:34:56.527Z,438.75
2019-02-26T12:35:59.496Z,433.12
2019-02-26T12:37:00.461Z,427.50
2019-02-26T12:38:01.297Z,427.50
2019-02-26T12:38:59.970Z,433.12
2019-02-26T12:39:57.932Z,433.12
2019-02-26T12:40:56.463Z,433.12
2019-02-26T12:41:56.451Z,427.50
2019-02-26T12:42:56.440Z,421.88
2019-02-26T12:43:59.365Z,421.88
2019-02-26T12:44:57.539Z,421.88
2019-02-26T12:45:58.964Z,421.88
2019-02-26T12:46:57.558Z,433.12
2019-02-26T12:47:56.388Z,455.62
2019-02-26T12:48:56.377Z,506.25
2019-02-26T12:49:58.555Z,573.75